Berd, Armenia

2:45 PM AMT on August 24, 2016 (GMT +0400)
Tbilisi International Air | | Change Station

Elev 1624 ft 41.67 °N, 44.95 °E | Updated 15 minutes ago

Clear
Clear
91 °F
Feels Like 91 °F
N
9
Wind Variable Wind from SSE

Today
High -- | Low -- °F
--% Chance of Precip.
Yesterday
High -- | Low -- °F
Precip. -- in
Pressure 30.01 in
Visibility -9999.0 miles
Clouds
Dew Point 50 °F
Humidity 24%
Rainfall 0.00 in
Snow Depth Not available.
6:17 AM 7:43 PM
Waning Gibbous, 58% visible
METAR UGTB 241030Z 16008KT 110V210 CAVOK 33/10 Q1016 R13R/CLRD70 NOSIG
Pressure 30.01 in
Visibility -9999.0 miles
Clouds
Dew Point 50 °F
Humidity 24%
Rainfall 0.00 in
Snow Depth Not available.
6:17 AM 7:43 PM
Waning Gibbous, 58% visible
METAR UGTB 241030Z 16008KT 110V210 CAVOK 33/10 Q1016 R13R/CLRD70 NOSIG

10-Day Weather Forecast

×

Almanac

Astronomy

Aug. 24, 2016 Rise Set
Actual Time
Civil Twilight
Nautical Twilight
Astronomical Twilight
Moon
Length of Visible Light
Length of Day
Tomorrow will be .
, % of the Moon is Illuminated

Today's Extremes

Country Highs Country Lows

Community

WunderPhotos

Upload Photos

1,934,562 photos uploaded!

WunderBlog® & News

Nearby

Air Quality

  Air Quality AQ Index Pollutant
Not available.

Snow Depth

Station Depth Elevation

Earthquake Activity

City Distance Mag. Time & Date
Minimum magnitude displayed is 2.5.

Coastal Water Temperatures

Place Temperature

Stations

Nearby Weather Stations

Station Location Temp. Windchill Dew Point Humidity Wind Precip. Elev Updated Type